Time;durP1;ratioP1;P1;durP2;ratioP2;P2;SDS_P1;SDS_P2;PMS_P1;PMS_P2;Temp;Humidity;BMP_temperature;BMP_pressure;BME280_temperature;BME280_humidity;BME280_pressure;Samples;Min_cycle;Max_cycle;Signal;HPM_P1;HPM_P2
2024/01/25 00:01:08;;;;;;;1999.90;999.90;;;;;;;7.82;100.00;102635.78;10338164;28;20046;-68
2024/01/25 00:06:10;;;;;;;1999.90;999.90;;;;;;;7.73;100.00;102643.78;10337027;28;20508;-68
2024/01/25 00:11:12;;;;;;;1999.90;999.90;;;;;;;7.70;100.00;102661.19;10337394;28;20137;-68
2024/01/25 00:16:15;;;;;;;1999.90;999.90;;;;;;;7.62;100.00;102656.97;10337638;28;20052;-68
2024/01/25 00:21:17;;;;;;;1999.90;999.90;;;;;;;7.48;100.00;102658.03;10320277;28;20052;-68
2024/01/25 00:26:20;;;;;;;1999.90;999.90;;;;;;;7.53;100.00;102649.28;10337041;28;20046;-68
2024/01/25 00:31:22;;;;;;;1999.90;999.90;;;;;;;7.40;100.00;102652.97;10336861;28;20050;-69
2024/01/25 00:36:25;;;;;;;1999.90;999.90;;;;;;;7.33;100.00;102657.41;10336207;28;20104;-69
2024/01/25 00:41:28;;;;;;;1999.90;999.90;;;;;;;7.27;100.00;102660.09;10335764;28;20410;-68
2024/01/25 00:46:30;;;;;;;1999.90;999.90;;;;;;;7.31;100.00;102663.50;10334639;28;20462;-69
2024/01/25 00:51:33;;;;;;;1999.90;999.90;;;;;;;7.19;100.00;102669.75;10336214;28;20054;-68
2024/01/25 00:56:36;;;;;;;1999.90;999.90;;;;;;;7.21;100.00;102662.75;10336095;28;20116;-68
2024/01/25 01:01:39;;;;;;;1999.90;999.90;;;;;;;7.13;100.00;102669.81;10335268;28;20496;-69
2024/01/25 01:06:42;;;;;;;1999.90;999.90;;;;;;;7.07;100.00;102681.19;10318639;28;20057;-68
2024/01/25 01:11:44;;;;;;;1999.90;999.90;;;;;;;6.92;100.00;102669.22;10333654;28;20478;-69
2024/01/25 01:16:47;;;;;;;1999.90;999.90;;;;;;;6.94;100.00;102684.81;10333544;28;20054;-69
2024/01/25 01:21:49;;;;;;;1999.90;999.90;;;;;;;6.90;100.00;102698.78;10335173;28;20181;-69
2024/01/25 01:26:51;;;;;;;1999.90;999.90;;;;;;;6.73;100.00;102698.97;10335017;28;20077;-68
2024/01/25 01:31:54;;;;;;;1999.90;999.90;;;;;;;6.80;100.00;102711.03;10333029;28;20494;-68
2024/01/25 01:36:56;;;;;;;1999.90;999.90;;;;;;;6.80;100.00;102698.00;10334663;28;20129;-68
2024/01/25 01:41:59;;;;;;;1999.90;999.90;;;;;;;6.81;100.00;102711.00;10333830;28;20089;-69
2024/01/25 01:47:01;;;;;;;1999.90;999.90;;;;;;;6.58;100.00;102729.47;10334439;28;20050;-68
2024/01/25 01:57:10;;;;;;;1999.90;999.90;;;;;;;6.61;100.00;102719.03;10331999;28;20050;-65
2024/01/25 02:02:12;;;;;;;1999.90;999.90;;;;;;;6.76;100.00;102738.84;10334300;28;20060;-65
2024/01/25 02:07:15;;;;;;;1999.90;999.90;;;;;;;6.38;100.00;102747.84;10334130;28;20047;-65
2024/01/25 02:12:17;;;;;;;1999.90;999.90;;;;;;;6.53;100.00;102744.25;10334126;28;20074;-65
2024/01/25 02:17:19;;;;;;;1999.90;999.90;;;;;;;6.45;100.00;102754.72;10334001;28;20060;-65
2024/01/25 02:22:22;;;;;;;1999.90;999.90;;;;;;;6.44;100.00;102754.72;10316688;28;20116;-65
2024/01/25 02:27:24;;;;;;;1999.90;999.90;;;;;;;6.44;100.00;102753.00;10333118;28;20054;-65
2024/01/25 02:32:27;;;;;;;1999.90;999.90;;;;;;;6.55;100.00;102746.84;10337956;28;20490;-65
2024/01/25 02:37:29;;;;;;;1999.90;999.90;;;;;;;6.18;100.00;102749.75;10341462;28;20053;-66
2024/01/25 02:42:32;;;;;;;1999.90;999.90;;;;;;;6.39;100.00;102748.72;10341235;28;20054;-65
2024/01/25 02:47:34;;;;;;;1999.90;999.90;;;;;;;6.30;100.00;102747.94;10323744;28;20050;-65
2024/01/25 02:52:37;;;;;;;1999.90;999.90;;;;;;;6.25;100.00;102759.25;10340110;28;20046;-65
2024/01/25 02:57:39;;;;;;;1999.90;999.90;;;;;;;6.25;100.00;102769.63;10340730;28;20054;-66
2024/01/25 03:02:42;;;;;;;1999.90;999.90;;;;;;;6.31;100.00;102777.41;10339885;28;20493;-65
2024/01/25 03:07:44;;;;;;;1999.90;999.90;;;;;;;6.16;100.00;102765.38;10340224;28;20047;-65
2024/01/25 03:12:47;;;;;;;1999.90;999.90;;;;;;;6.09;100.00;102764.56;10340149;28;20050;-65
2024/01/25 03:17:49;;;;;;;1999.90;999.90;;;;;;;5.97;100.00;102758.56;10339947;28;20117;-65
2024/01/25 03:22:51;;;;;;;1999.90;999.90;;;;;;;5.90;100.00;102749.91;10339773;28;20073;-65
2024/01/25 03:27:54;;;;;;;1999.90;999.90;;;;;;;6.05;100.00;102748.97;10339460;28;20046;-65
2024/01/25 03:32:56;;;;;;;1999.90;999.90;;;;;;;5.99;100.00;102746.44;10322160;28;20050;-65
2024/01/25 03:37:59;;;;;;;1999.90;999.90;;;;;;;5.85;100.00;102762.97;10338508;28;20386;-65
2024/01/25 03:43:01;;;;;;;1999.90;999.90;;;;;;;5.79;100.00;102755.19;10337847;28;20158;-65
2024/01/25 03:48:21;;;;;;;1999.90;999.90;;;;;;;5.86;100.00;102776.81;10338174;28;20042;-65
2024/01/25 03:53:24;;;;;;;1999.90;999.90;;;;;;;5.68;100.00;102769.97;10337972;28;20070;-65
2024/01/25 03:58:26;;;;;;;1999.90;999.90;;;;;;;5.71;100.00;102780.38;10321211;28;20070;-65
2024/01/25 04:03:29;;;;;;;1999.90;999.90;;;;;;;5.48;100.00;102765.75;10337597;28;20060;-65
2024/01/25 04:08:32;;;;;;;1999.90;999.90;;;;;;;5.46;100.00;102764.88;10320305;28;20047;-65
2024/01/25 04:13:35;;;;;;;1999.90;999.90;;;;;;;5.48;100.00;102763.16;10337892;28;20057;-65
2024/01/25 04:18:38;;;;;;;1999.90;999.90;;;;;;;5.47;100.00;102764.03;10320009;28;20548;-65
2024/01/25 04:23:40;;;;;;;1999.90;999.90;;;;;;;5.49;100.00;102772.66;10320142;28;20054;-65
2024/01/25 04:28:43;;;;;;;1999.90;999.90;;;;;;;5.37;100.00;102776.19;10319900;28;20058;-65
2024/01/25 04:33:45;;;;;;;1999.90;999.90;;;;;;;5.24;100.00;102781.44;10319735;28;20054;-65
2024/01/25 04:38:50;;;;;;;1999.90;999.90;;;;;;;5.37;100.00;102778.78;10320635;28;20046;-65
2024/01/25 04:43:52;;;;;;;1999.90;999.90;;;;;;;5.33;100.00;102794.38;10336689;28;20054;-65
2024/01/25 04:48:55;;;;;;;1999.90;999.90;;;;;;;5.37;100.00;102767.53;10336345;28;20046;-65
2024/01/25 04:53:58;;;;;;;1999.90;999.90;;;;;;;5.38;100.00;102775.31;10335529;28;20054;-65
2024/01/25 04:59:00;;;;;;;1999.90;999.90;;;;;;;5.32;100.00;102775.34;10336055;28;20153;-65
2024/01/25 05:04:03;;;;;;;1999.90;999.90;;;;;;;5.24;100.00;102776.25;10335214;28;20404;-65
2024/01/25 05:09:08;;;;;;;1999.90;999.90;;;;;;;5.17;100.00;102773.66;10335600;28;20046;-65
2024/01/25 05:14:11;;;;;;;1999.90;999.90;;;;;;;5.09;100.00;102778.00;10318004;28;20050;-65
2024/01/25 05:19:13;;;;;;;1999.90;999.90;;;;;;;5.14;100.00;102780.59;10335325;28;20050;-65
2024/01/25 05:24:16;;;;;;;1999.90;999.90;;;;;;;5.09;100.00;102788.38;10334572;28;20453;-65
2024/01/25 05:29:18;;;;;;;1999.90;999.90;;;;;;;5.05;100.00;102794.47;10334306;28;20544;-65
2024/01/25 05:34:21;;;;;;;1999.90;999.90;;;;;;;5.18;100.00;102803.97;10334915;28;20050;-65
2024/01/25 05:39:23;;;;;;;1999.90;999.90;;;;;;;4.95;100.00;102796.22;10334792;28;20042;-64
2024/01/25 05:44:26;;;;;;;1999.90;999.90;;;;;;;5.08;100.00;102797.06;10334060;28;20405;-65
2024/01/25 05:49:28;;;;;;;1999.90;999.90;;;;;;;5.11;100.00;102796.16;10334414;28;20125;-65
2024/01/25 05:54:31;;;;;;;1999.90;999.90;;;;;;;4.88;100.00;102804.88;10334022;28;20108;-64
2024/01/25 05:59:33;;;;;;;1999.90;999.90;;;;;;;5.02;100.00;102807.44;10334354;28;20057;-65
2024/01/25 06:04:36;;;;;;;1999.90;999.90;;;;;;;4.95;100.00;102816.97;10334407;28;20129;-65
2024/01/25 06:09:38;;;;;;;1999.90;999.90;;;;;;;4.99;100.00;102810.03;10325282;28;20129;-65
2024/01/25 06:14:41;;;;;;;1999.90;999.90;;;;;;;4.88;100.00;102807.47;10341769;28;20562;-65
2024/01/25 06:19:43;;;;;;;1999.90;999.90;;;;;;;4.96;100.00;102820.44;10342153;28;20096;-65
2024/01/25 06:24:46;;;;;;;1999.90;999.90;;;;;;;4.99;100.00;102838.59;10341988;28;20059;-65
2024/01/25 06:29:48;;;;;;;1999.90;999.90;;;;;;;4.75;100.00;102837.75;10341148;28;20051;-65
2024/01/25 06:34:50;;;;;;;1999.90;999.90;;;;;;;4.81;100.00;102832.56;10340976;28;20061;-65
2024/01/25 06:39:54;;;;;;;1999.90;999.90;;;;;;;4.86;100.00;102829.97;10341386;28;20057;-65
2024/01/25 06:44:56;;;;;;;1999.90;999.90;;;;;;;4.86;100.00;102842.97;10324033;28;20055;-65
2024/01/25 06:49:59;;;;;;;1999.90;999.90;;;;;;;4.94;100.00;102840.34;10340301;28;20493;-65
2024/01/25 06:55:01;;;;;;;1999.90;999.90;;;;;;;4.86;100.00;102837.78;10340385;28;20054;-65
2024/01/25 07:00:04;;;;;;;1999.90;999.90;;;;;;;4.79;100.00;102838.63;10323291;28;20635;-65
2024/01/25 07:05:08;;;;;;;1999.90;999.90;;;;;;;4.91;100.00;102843.81;10322546;28;20129;-65
2024/01/25 07:10:10;;;;;;;1999.90;999.90;;;;;;;5.01;100.00;102842.94;10323173;28;20129;-65
2024/01/25 07:15:13;;;;;;;1999.90;999.90;;;;;;;5.05;100.00;102817.84;10339400;28;20062;-65
2024/01/25 07:20:15;;;;;;;1999.90;999.90;;;;;;;5.05;100.00;102817.84;10339754;28;20053;-65
2024/01/25 07:25:18;;;;;;;1999.90;999.90;;;;;;;5.09;100.00;102823.88;10339727;28;20082;-65
2024/01/25 07:30:20;;;;;;;1999.90;999.90;;;;;;;5.24;100.00;102828.19;10339470;28;20047;-65
2024/01/25 07:35:23;;;;;;;1999.90;999.90;;;;;;;5.02;100.00;102849.00;10338753;28;20050;-65
2024/01/25 07:40:26;;;;;;;1999.90;999.90;;;;;;;4.99;100.00;102851.59;10339305;28;20054;-65
2024/01/25 07:45:28;;;;;;;1999.90;999.90;;;;;;;5.11;100.00;102858.50;10338974;28;20061;-65
2024/01/25 07:50:31;;;;;;;1999.90;999.90;;;;;;;5.01;100.00;102858.53;10321591;28;20046;-65
2024/01/25 07:55:33;;;;;;;1999.90;999.90;;;;;;;4.87;100.00;102846.41;10338068;28;20054;-65
2024/01/25 08:00:36;;;;;;;1999.90;999.90;;;;;;;4.99;100.00;102856.78;10338410;28;20057;-65
2024/01/25 08:05:38;;;;;;;1999.90;999.90;;;;;;;5.09;100.00;102855.91;10337563;28;20450;-65
2024/01/25 08:10:49;;;;;;;1999.90;999.90;;;;;;;5.16;100.00;102851.56;10337995;28;20058;-65
2024/01/25 08:15:52;;;;;;;1999.90;999.90;;;;;;;5.21;100.00;102853.31;10337748;28;20054;-65
2024/01/25 08:20:55;;;;;;;1999.90;999.90;;;;;;;5.19;100.00;102852.44;10337562;28;20050;-65
2024/01/25 08:25:58;;;;;;;1999.90;999.90;;;;;;;5.36;100.00;102862.78;10337316;28;20061;-65
2024/01/25 08:31:01;;;;;;;1999.90;999.90;;;;;;;5.53;100.00;102856.66;10335879;28;20448;-65
2024/01/25 08:36:04;;;;;;;1999.90;999.90;;;;;;;5.41;100.00;102862.75;10336963;28;20050;-65
2024/01/25 08:41:07;;;;;;;1999.90;999.90;;;;;;;5.54;100.00;102861.00;10336771;28;20129;-65
2024/01/25 08:46:09;;;;;;;1999.90;999.90;;;;;;;5.79;100.00;102864.38;10335954;28;20054;-65
2024/01/25 08:51:12;;;;;;;1999.90;999.90;;;;;;;5.83;100.00;102878.22;10318450;28;20050;-65
2024/01/25 08:56:14;;;;;;;1999.90;999.90;;;;;;;5.88;100.00;102890.31;10318308;28;20146;-65
2024/01/25 09:01:17;;;;;;;1999.90;999.90;;;;;;;5.98;100.00;102885.13;10336018;28;20078;-65
2024/01/25 09:06:19;;;;;;;1999.90;999.90;;;;;;;6.07;100.00;102862.53;10335776;28;20058;-65
2024/01/25 09:11:22;;;;;;;1999.90;999.90;;;;;;;6.40;100.00;102862.31;10335589;28;20097;-65
2024/01/25 09:16:24;;;;;;;1999.90;999.90;;;;;;;6.56;100.00;102883.91;10334265;28;20054;-65
2024/01/25 09:21:27;;;;;;;1999.90;999.90;;;;;;;7.04;100.00;102880.06;10334694;28;20481;-65
2024/01/25 09:26:29;;;;;;;1999.90;999.90;;;;;;;7.94;100.00;102863.41;10334875;28;20050;-65
2024/01/25 09:31:32;;;;;;;1999.90;999.90;;;;;;;7.99;100.00;102869.41;10334905;28;20046;-65
2024/01/25 09:36:35;;;;;;;1999.90;999.90;;;;;;;8.09;100.00;102876.25;10333128;28;20125;-65
2024/01/25 09:41:37;;;;;;;1999.90;999.90;;;;;;;7.90;98.54;102878.25;10333263;28;20054;-65
2024/01/25 09:46:40;;;;;;;1999.90;999.90;;;;;;;7.63;100.00;102888.13;10317453;28;20077;-65
2024/01/25 09:51:45;;;;;;;1999.90;999.90;;;;;;;7.27;100.00;102881.56;10332653;28;20053;-65
2024/01/25 09:56:51;;;;;;;1999.90;999.90;;;;;;;7.09;100.00;102866.09;10332640;28;20421;-65
2024/01/25 10:01:54;;;;;;;1999.90;999.90;;;;;;;7.32;100.00;102863.28;10333757;28;20043;-65
2024/01/25 10:06:57;;;;;;;1999.90;999.90;;;;;;;7.40;100.00;102870.13;10333071;28;20089;-65
2024/01/25 10:12:00;;;;;;;1999.90;999.90;;;;;;;7.94;100.00;102863.41;10332956;28;20090;-65
2024/01/25 10:17:05;;;;;;;1999.90;999.90;;;;;;;7.67;100.00;102855.03;10334096;28;20057;-65
2024/01/25 10:22:08;;;;;;;1999.90;999.90;;;;;;;8.77;99.03;102837.81;10333379;28;20054;-66
2024/01/25 10:27:12;;;;;;;1999.90;999.90;;;;;;;9.29;94.46;102834.25;10333240;28;20567;-65
2024/01/25 10:32:15;;;;;;;1999.90;999.90;;;;;;;8.86;95.60;102840.25;10333741;28;20055;-66
2024/01/25 10:37:18;;;;;;;1999.90;999.90;;;;;;;8.73;96.55;102842.25;10332543;28;20051;-66
2024/01/25 10:42:21;;;;;;;1999.90;999.90;;;;;;;8.98;97.35;102847.00;10332436;28;20046;-65
2024/01/25 10:47:24;;;;;;;1999.90;999.90;;;;;;;9.09;93.99;102835.50;10331740;28;20078;-65
2024/01/25 10:52:27;;;;;;;1999.90;999.90;;;;;;;9.33;95.39;102851.63;10336329;28;20046;-65
2024/01/25 10:57:39;;;;;;;1999.90;999.90;;;;;;;9.49;95.59;102826.00;10338734;28;20069;-65
2024/01/25 11:02:42;;;;;;;1999.90;999.90;;;;;;;9.32;93.70;102813.28;10339548;28;20050;-66
2024/01/25 11:07:46;;;;;;;1999.90;999.90;;;;;;;8.80;94.67;102816.88;10323446;28;20054;-66
2024/01/25 11:12:55;;;;;;;1999.90;999.90;;;;;;;9.09;95.05;102811.09;10340237;28;20057;-65
2024/01/25 11:17:58;;;;;;;1999.90;999.90;;;;;;;9.50;92.79;102801.59;10338949;28;20057;-66
2024/01/25 11:23:05;;;;;;;1999.90;999.90;;;;;;;9.14;94.96;102804.03;10338770;28;20061;-66
2024/01/25 11:28:08;;;;;;;1999.90;999.90;;;;;;;9.13;93.61;102797.09;10337972;28;20054;-66
2024/01/25 11:33:10;;;;;;;1999.90;999.90;;;;;;;9.09;94.84;102774.53;10339374;28;20054;-66
2024/01/25 11:38:13;;;;;;;1999.90;999.90;;;;;;;9.10;94.00;102758.81;10338118;28;20053;-66
2024/01/25 11:43:15;;;;;;;1999.90;999.90;;;;;;;9.13;96.08;102780.53;10338462;28;20398;-65
2024/01/25 11:48:19;;;;;;;1999.90;999.90;;;;;;;9.09;95.51;102764.94;10338954;28;20054;-66
2024/01/25 11:53:21;;;;;;;1999.90;999.90;;;;;;;8.92;96.65;102753.94;10321109;28;20050;-66
2024/01/25 11:58:24;;;;;;;1999.90;999.90;;;;;;;9.31;95.87;102751.41;10338533;28;20064;-66
2024/01/25 12:03:27;;;;;;;1999.90;999.90;;;;;;;9.81;93.76;102741.59;10336248;28;20125;-66
2024/01/25 12:08:29;;;;;;;1999.90;999.90;;;;;;;9.78;93.31;102749.50;10338121;28;20054;-66
2024/01/25 12:13:35;;;;;;;1999.90;999.90;;;;;;;9.24;92.12;102729.78;10337246;28;20050;-66
2024/01/25 12:18:40;;;;;;;1999.90;999.90;;;;;;;9.35;95.05;102726.94;10337228;28;20540;-66
2024/01/25 12:23:43;;;;;;;1999.90;999.90;;;;;;;9.23;94.51;102720.22;10335785;28;20489;-66
2024/01/25 12:28:48;;;;;;;1999.90;999.90;;;;;;;9.77;90.46;102719.03;10336052;28;20112;-66
2024/01/25 12:33:50;;;;;;;1999.90;999.90;;;;;;;9.49;92.20;102714.41;10335815;28;20054;-66
2024/01/25 12:38:53;;;;;;;1999.90;999.90;;;;;;;9.72;91.60;102705.22;10336273;28;20471;-66
2024/01/25 12:43:55;;;;;;;1999.90;999.90;;;;;;;9.49;92.26;102698.72;10319407;28;20125;-66
2024/01/25 12:48:58;;;;;;;1999.90;999.90;;;;;;;9.49;92.02;102695.28;10336452;28;20108;-66
2024/01/25 12:54:01;;;;;;;1999.90;999.90;;;;;;;9.41;92.89;102679.75;10336016;28;20065;-66
2024/01/25 12:59:03;;;;;;;1999.90;999.90;;;;;;;8.95;97.84;102706.88;10318200;28;20557;-66
2024/01/25 13:04:05;;;;;;;1999.90;999.90;;;;;;;8.67;99.80;102704.78;10335922;28;20058;-66
2024/01/25 13:09:08;;;;;;;1999.90;999.90;;;;;;;8.43;100.00;102692.19;10334634;28;20050;-66
2024/01/25 13:14:10;;;;;;;1999.90;999.90;;;;;;;8.41;100.00;102683.50;10335426;28;20138;-66
2024/01/25 13:19:13;;;;;;;1999.90;999.90;;;;;;;8.51;100.00;102672.03;10335480;28;20121;-66
2024/01/25 13:24:15;;;;;;;1999.90;999.90;;;;;;;8.51;100.00;102666.81;10335324;28;20129;-66
2024/01/25 13:29:18;;;;;;;1999.90;999.90;;;;;;;8.07;100.00;102665.81;10333899;28;20100;-66
2024/01/25 13:34:20;;;;;;;1999.90;999.90;;;;;;;8.10;100.00;102657.94;10335015;28;20133;-66
2024/01/25 13:39:23;;;;;;;1999.90;999.90;;;;;;;8.31;100.00;102652.34;10334752;28;20081;-65
2024/01/25 13:44:25;;;;;;;1999.90;999.90;;;;;;;8.22;100.00;102656.84;10333555;28;20108;-66
2024/01/25 13:49:27;;;;;;;1999.90;999.90;;;;;;;8.33;100.00;102640.13;10317348;28;20081;-66
2024/01/25 13:54:30;;;;;;;1999.90;999.90;;;;;;;8.26;100.00;102635.06;10316380;28;20518;-66
2024/01/25 13:59:33;;;;;;;1999.90;999.90;;;;;;;8.29;100.00;102630.63;10334314;28;20047;-66
2024/01/25 14:04:35;;;;;;;1999.90;999.90;;;;;;;8.22;100.00;102630.75;10334249;28;20050;-66
2024/01/25 14:09:38;;;;;;;1999.90;999.90;;;;;;;7.99;100.00;102616.41;10367480;22;20057;-69
2024/01/25 14:14:42;;;;;;;1999.90;999.90;;;;;;;8.02;100.00;102608.53;10374683;28;20073;-69
2024/01/25 14:19:44;;;;;;;1999.90;999.90;;;;;;;8.10;100.00;102616.19;10373453;28;20049;-69
2024/01/25 14:24:47;;;;;;;1999.90;999.90;;;;;;;8.25;100.00;102608.06;10374594;28;20130;-69
2024/01/25 14:29:50;;;;;;;1999.90;999.90;;;;;;;8.00;100.00;102599.84;10381406;28;20133;-69
2024/01/25 14:34:53;;;;;;;1999.90;999.90;;;;;;;7.94;100.00;102594.75;10382367;28;20058;-69
2024/01/25 14:39:55;;;;;;;1999.90;999.90;;;;;;;8.07;100.00;102587.53;10381555;28;20125;-69
2024/01/25 14:45:18;;;;;;;1999.90;999.90;;;;;;;7.92;100.00;102580.88;10381001;28;20061;-69
2024/01/25 14:50:20;;;;;;;1999.90;999.90;;;;;;;7.98;100.00;102581.63;10380503;28;20054;-69
2024/01/25 14:55:24;;;;;;;1999.90;999.90;;;;;;;7.74;100.00;102579.44;10381599;28;20077;-69
2024/01/25 15:00:26;;;;;;;1999.90;999.90;;;;;;;7.71;100.00;102572.53;10381537;28;20065;-69
2024/01/25 15:05:29;;;;;;;1999.90;999.90;;;;;;;7.94;100.00;102564.31;10381204;28;20053;-69
2024/01/25 15:10:32;;;;;;;1999.90;999.90;;;;;;;7.71;100.00;102559.47;10378974;28;20390;-69
2024/01/25 15:15:34;;;;;;;1999.90;999.90;;;;;;;7.92;100.00;102550.44;10380826;28;20129;-68
2024/01/25 15:20:37;;;;;;;1999.90;999.90;;;;;;;7.95;100.00;102557.31;10379405;28;20054;-68
2024/01/25 15:25:40;;;;;;;1999.90;999.90;;;;;;;8.06;100.00;102550.16;10379810;28;20050;-68
2024/01/25 15:30:43;;;;;;;1999.90;999.90;;;;;;;7.96;100.00;102551.22;10380115;28;20081;-68
2024/01/25 15:35:45;;;;;;;1999.90;999.90;;;;;;;8.28;100.00;102544.53;10378059;28;20054;-69
2024/01/25 15:40:47;;;;;;;1999.90;999.90;;;;;;;8.04;100.00;102530.25;10378706;28;20050;-69
2024/01/25 15:45:50;;;;;;;1999.90;999.90;;;;;;;7.90;100.00;102525.25;10378856;28;20406;-68
2024/01/25 15:50:52;;;;;;;1999.90;999.90;;;;;;;8.06;100.00;102525.84;10379068;28;20045;-68
2024/01/25 15:55:55;;;;;;;1999.90;999.90;;;;;;;8.02;100.00;102514.63;10378981;28;20053;-68
2024/01/25 16:00:57;;;;;;;1999.90;999.90;;;;;;;7.78;100.00;102488.09;10379095;28;20050;-68
2024/01/25 16:06:01;;;;;;;1999.90;999.90;;;;;;;7.71;100.00;102485.63;10378271;28;20480;-69
2024/01/25 16:11:03;;;;;;;1999.90;999.90;;;;;;;7.76;100.00;102487.25;10376722;28;20058;-69
2024/01/25 16:16:06;;;;;;;1999.90;999.90;;;;;;;7.62;100.00;102491.88;10377747;28;20485;-70
2024/01/25 16:21:08;;;;;;;1999.90;999.90;;;;;;;7.85;100.00;102499.28;10378257;28;20050;-69
2024/01/25 16:26:11;;;;;;;1999.90;999.90;;;;;;;7.71;100.00;102498.66;10377440;28;20485;-69
2024/01/25 16:31:13;;;;;;;1999.90;999.90;;;;;;;7.65;100.00;102504.88;10377185;28;20477;-69
2024/01/25 16:36:15;;;;;;;1999.90;999.90;;;;;;;7.60;100.00;102507.53;10377019;28;20485;-68
2024/01/25 16:41:17;;;;;;;1999.90;999.90;;;;;;;7.81;100.00;102505.44;10376852;28;20119;-68
2024/01/25 16:46:20;;;;;;;1999.90;999.90;;;;;;;7.73;100.00;102489.94;10377282;28;20133;-69
2024/01/25 16:51:22;;;;;;;1999.90;999.90;;;;;;;7.70;100.00;102479.56;10376597;28;20075;-68
2024/01/25 16:56:25;;;;;;;1999.90;999.90;;;;;;;7.90;100.00;102493.97;10375345;28;20476;-68
2024/01/25 17:01:27;;;;;;;1999.90;999.90;;;;;;;7.97;100.00;102490.38;10374987;28;20527;-68
2024/01/25 17:06:30;;;;;;;1999.90;999.90;;;;;;;7.97;100.00;102478.19;10376004;28;20092;-68
2024/01/25 17:11:34;;;;;;;1999.90;999.90;;;;;;;7.96;100.00;102481.66;10375548;28;20474;-68
2024/01/25 17:16:36;;;;;;;1999.90;999.90;;;;;;;8.12;100.00;102479.63;10375607;28;20501;-68
2024/01/25 17:21:39;;;;;;;1999.90;999.90;;;;;;;8.04;100.00;102478.91;10376031;28;20060;-68
2024/01/25 17:26:41;;;;;;;1999.90;999.90;;;;;;;8.25;100.00;102471.53;10375881;28;20050;-68
2024/01/25 17:31:43;;;;;;;1999.90;999.90;;;;;;;8.26;100.00;102481.09;10375653;28;20041;-68
2024/01/25 17:36:46;;;;;;;1999.90;999.90;;;;;;;8.35;100.00;102468.72;10375573;28;20060;-68
2024/01/25 17:41:48;;;;;;;1999.90;999.90;;;;;;;8.40;100.00;102473.81;10374828;28;20053;-68
2024/01/25 17:46:51;;;;;;;1999.90;999.90;;;;;;;8.33;100.00;102474.84;10375303;28;20125;-67
2024/01/25 17:51:53;;;;;;;1999.90;999.90;;;;;;;8.47;100.00;102471.97;10375076;28;20080;-68
2024/01/25 17:56:58;;;;;;;1999.90;999.90;;;;;;;8.38;100.00;102467.78;10374481;28;20129;-68
2024/01/25 18:02:04;;;;;;;1999.90;999.90;;;;;;;8.48;100.00;102473.69;10372461;28;20509;-68
2024/01/25 18:07:06;;;;;;;1999.90;999.90;;;;;;;8.55;100.00;102475.28;10374913;28;20130;-68
2024/01/25 18:12:10;;;;;;;1999.90;999.90;;;;;;;8.73;100.00;102472.25;10373958;28;20061;-68
2024/01/25 18:17:12;;;;;;;1999.90;999.90;;;;;;;8.66;100.00;102462.84;10374667;28;20077;-67
2024/01/25 18:22:14;;;;;;;1999.90;999.90;;;;;;;8.62;100.00;102462.94;10372817;28;20425;-68
2024/01/25 18:27:17;;;;;;;1999.90;999.90;;;;;;;8.59;100.00;102458.66;10373846;28;20050;-68
2024/01/25 18:32:20;;;;;;;1999.90;999.90;;;;;;;8.83;100.00;102452.00;10373393;28;20052;-68
2024/01/25 18:37:23;;;;;;;1999.90;999.90;;;;;;;8.68;100.00;102442.78;10372568;28;20088;-68
2024/01/25 18:42:25;;;;;;;1999.90;999.90;;;;;;;8.63;100.00;102442.03;10373634;28;20520;-67
2024/01/25 18:47:28;;;;;;;1999.90;999.90;;;;;;;8.90;100.00;102435.28;10374011;28;20056;-68
2024/01/25 18:52:30;;;;;;;1999.90;999.90;;;;;;;8.94;100.00;102436.06;10373936;28;20046;-68
2024/01/25 18:57:34;;;;;;;1999.90;999.90;;;;;;;8.98;100.00;102432.50;10374054;28;20053;-68
2024/01/25 19:02:37;;;;;;;1999.90;999.90;;;;;;;9.14;100.00;102432.09;10373845;28;20042;-68
2024/01/25 19:07:40;;;;;;;1999.90;999.90;;;;;;;8.96;100.00;102415.13;10373493;28;20049;-68
2024/01/25 19:12:42;;;;;;;1999.90;999.90;;;;;;;9.08;100.00;102415.69;10358006;28;20121;-68
2024/01/25 19:17:44;;;;;;;1999.90;999.90;;;;;;;9.07;100.00;102413.13;10380097;28;20571;-68
2024/01/25 19:22:48;;;;;;;1999.90;999.90;;;;;;;9.20;100.00;102411.06;10380553;28;20050;-68
2024/01/25 19:27:50;;;;;;;1999.90;999.90;;;;;;;9.17;100.00;102409.38;10380392;28;20133;-68
2024/01/25 19:32:53;;;;;;;1999.90;999.90;;;;;;;9.22;100.00;102401.41;10379509;28;20136;-68
2024/01/25 19:37:55;;;;;;;1999.90;999.90;;;;;;;9.19;100.00;102396.25;10379594;28;20512;-68
2024/01/25 19:42:58;;;;;;;1999.90;999.90;;;;;;;9.32;100.00;102395.03;10379794;28;20056;-68
2024/01/25 19:48:00;;;;;;;1999.90;999.90;;;;;;;9.42;100.00;102400.88;10378544;28;20057;-68
2024/01/25 19:53:06;;;;;;;1999.90;999.90;;;;;;;9.62;100.00;102389.88;10378226;28;20045;-68
2024/01/25 19:58:08;;;;;;;1999.90;999.90;;;;;;;9.34;100.00;102389.78;10379292;28;20058;-68
2024/01/25 20:03:11;;;;;;;1999.90;999.90;;;;;;;9.51;100.00;102379.72;10379021;28;20053;-68
2024/01/25 20:08:14;;;;;;;1999.90;999.90;;;;;;;9.48;100.00;102366.72;10378476;28;20072;-68
2024/01/25 20:13:16;;;;;;;1999.90;999.90;;;;;;;9.42;100.00;102359.06;10378433;28;20045;-68
2024/01/25 20:18:19;;;;;;;1999.90;999.90;;;;;;;9.40;100.00;102360.88;10377795;28;20558;-68
2024/01/25 20:23:21;;;;;;;1999.90;999.90;;;;;;;9.58;100.00;102362.09;10377582;28;20080;-68
2024/01/25 20:28:24;;;;;;;1999.90;999.90;;;;;;;9.63;100.00;102352.34;10377944;28;20129;-68
2024/01/25 20:33:26;;;;;;;1999.90;999.90;;;;;;;9.39;100.00;102351.31;10377126;28;20440;-68
2024/01/25 20:38:29;;;;;;;1999.90;999.90;;;;;;;9.60;100.00;102358.56;10375885;28;20398;-68
2024/01/25 20:43:31;;;;;;;1999.90;999.90;;;;;;;9.80;100.00;102344.03;10376813;28;20413;-68
2024/01/25 20:48:35;;;;;;;1999.90;999.90;;;;;;;9.71;100.00;102350.38;10376610;28;20387;-68
2024/01/25 20:53:38;;;;;;;1999.90;999.90;;;;;;;9.64;100.00;102341.00;10377020;28;20104;-68
2024/01/25 20:58:44;;;;;;;1999.90;999.90;;;;;;;9.81;100.00;102327.44;10376911;28;20104;-67
2024/01/25 21:03:47;;;;;;;1999.90;999.90;;;;;;;9.65;100.00;102324.44;10376744;28;20056;-67
2024/01/25 21:08:50;;;;;;;1999.90;999.90;;;;;;;9.85;100.00;102319.47;10376158;28;20061;-68
2024/01/25 21:13:52;;;;;;;1999.90;999.90;;;;;;;9.56;100.00;102325.53;10375108;28;20077;-68
2024/01/25 21:18:56;;;;;;;1999.90;999.90;;;;;;;9.64;100.00;102315.69;10376156;28;20073;-68
2024/01/25 21:23:58;;;;;;;1999.90;999.90;;;;;;;9.88;100.00;102309.78;10376218;28;20057;-68
2024/01/25 21:29:01;;;;;;;1999.90;999.90;;;;;;;9.73;100.00;102305.88;10375863;28;20129;-68
2024/01/25 21:34:03;;;;;;;1999.90;999.90;;;;;;;9.78;100.00;102315.28;10374637;28;20062;-68
2024/01/25 21:39:07;;;;;;;1999.90;999.90;;;;;;;9.94;100.00;102304.38;10375505;28;20056;-68
2024/01/25 21:44:12;;;;;;;1999.90;999.90;;;;;;;9.80;100.00;102297.81;10375496;28;20124;-68
2024/01/25 21:49:16;;;;;;;1999.90;999.90;;;;;;;9.90;100.00;102298.41;10375349;28;20060;-68
2024/01/25 21:54:19;;;;;;;1999.90;999.90;;;;;;;9.94;100.00;102283.47;10373384;28;20460;-68
2024/01/25 21:59:22;;;;;;;1999.90;999.90;;;;;;;9.82;100.00;102300.38;10375062;28;20055;-68